Time;durP1;ratioP1;P1;durP2;ratioP2;P2;SDS_P1;SDS_P2;PMS_P1;PMS_P2;Temp;Humidity;BMP_temperature;BMP_pressure;BME280_temperature;BME280_humidity;BME280_pressure;Samples;Min_cycle;Max_cycle;Signal;HPM_P1;HPM_P2
2023/07/30 00:01:45;;;;;;;22.45;7.53;;;18.60;99.90;;;;;;4912778;29;20187;-86
2023/07/30 00:04:11;;;;;;;28.33;6.88;;;18.50;99.90;;;;;;4914397;29;20275;-87
2023/07/30 00:06:36;;;;;;;24.27;6.78;;;18.50;99.90;;;;;;4912007;29;20204;-87
2023/07/30 00:09:03;;;;;;;20.77;6.93;;;18.50;99.90;;;;;;4911800;29;20203;-87
2023/07/30 00:11:29;;;;;;;20.02;5.97;;;18.50;99.90;;;;;;4913150;29;20676;-87
2023/07/30 00:13:55;;;;;;;22.88;6.65;;;18.50;99.90;;;;;;4914752;29;20195;-86
2023/07/30 00:16:21;;;;;;;23.45;7.13;;;18.50;99.90;;;;;;4923116;29;20190;-87
2023/07/30 00:18:46;;;;;;;26.63;6.93;;;18.50;99.90;;;;;;4913499;29;20520;-87
2023/07/30 00:21:12;;;;;;;29.00;6.93;;;18.50;99.90;;;;;;4914599;29;20223;-86
2023/07/30 00:23:38;;;;;;;20.40;6.45;;;18.50;99.90;;;;;;4914550;29;20622;-87
2023/07/30 00:26:04;;;;;;;26.77;6.53;;;18.40;99.90;;;;;;4911304;29;20196;-87
2023/07/30 00:28:29;;;;;;;26.23;6.22;;;18.40;99.90;;;;;;4914044;29;20260;-87
2023/07/30 00:30:55;;;;;;;27.17;6.75;;;18.40;99.90;;;;;;4911417;29;20691;-87
2023/07/30 00:33:21;;;;;;;23.85;6.60;;;18.40;99.90;;;;;;4915206;29;20207;-87
2023/07/30 00:35:47;;;;;;;18.63;7.00;;;18.40;99.90;;;;;;4908552;29;20294;-86
2023/07/30 00:38:14;;;;;;;25.33;6.45;;;18.30;99.90;;;;;;4911634;29;20695;-86
2023/07/30 00:40:41;;;;;;;27.45;7.72;;;18.30;99.90;;;;;;4911808;29;20588;-87
2023/07/30 00:43:07;;;;;;;20.73;6.68;;;18.30;99.90;;;;;;4932748;29;20230;-87
2023/07/30 00:45:34;;;;;;;23.58;6.72;;;18.30;99.90;;;;;;4909946;29;20195;-86
2023/07/30 00:48:00;;;;;;;18.95;6.93;;;18.20;99.90;;;;;;4919447;29;20227;-87
2023/07/30 00:50:26;;;;;;;19.58;6.35;;;18.20;99.90;;;;;;4912959;29;20229;-87
2023/07/30 00:52:52;;;;;;;23.73;6.60;;;18.20;99.90;;;;;;4919845;29;20224;-87
2023/07/30 00:55:18;;;;;;;24.67;7.03;;;18.20;99.90;;;;;;4915206;29;20279;-87
2023/07/30 00:57:45;;;;;;;29.45;6.85;;;18.20;99.90;;;;;;4918344;29;20279;-87
2023/07/30 01:00:12;;;;;;;30.15;7.35;;;18.20;99.90;;;;;;4914113;29;20216;-87
2023/07/30 01:02:38;;;;;;;20.27;6.55;;;18.10;99.90;;;;;;4913087;29;20194;-87
2023/07/30 01:05:04;;;;;;;20.30;6.72;;;18.10;99.90;;;;;;4914140;29;20594;-86
2023/07/30 01:07:33;;;;;;;24.00;6.38;;;18.10;99.90;;;;;;4919020;29;20287;-85
2023/07/30 01:10:00;;;;;;;20.88;6.50;;;18.10;99.90;;;;;;4913844;29;20258;-87
2023/07/30 01:12:29;;;;;;;24.23;6.60;;;18.10;99.90;;;;;;4913618;29;20634;-86
2023/07/30 01:14:56;;;;;;;21.15;6.22;;;18.00;99.90;;;;;;4911969;29;20199;-87
2023/07/30 01:17:22;;;;;;;21.45;6.30;;;18.00;99.90;;;;;;4918892;29;20184;-87
2023/07/30 01:19:54;;;;;;;16.92;6.07;;;18.00;99.90;;;;;;4917870;29;20207;-86
2023/07/30 01:22:22;;;;;;;24.73;6.45;;;18.00;99.90;;;;;;4916083;29;20495;-85
2023/07/30 01:24:48;;;;;;;21.98;6.20;;;17.90;99.90;;;;;;4911243;29;20180;-87
2023/07/30 01:27:22;;;;;;;17.08;6.05;;;17.90;99.90;;;;;;4914309;29;20646;-87
2023/07/30 01:30:27;;;;;;;21.95;5.72;;;17.90;99.90;;;;;;4914110;29;20665;-87
2023/07/30 01:32:54;;;;;;;17.58;6.00;;;17.90;99.90;;;;;;4917805;29;20670;-87
2023/07/30 01:35:27;;;;;;;17.50;6.05;;;17.90;99.90;;;;;;4917016;29;20191;-87
2023/07/30 01:37:54;;;;;;;21.67;6.50;;;17.90;99.90;;;;;;4917268;29;20812;-87
2023/07/30 01:40:21;;;;;;;31.02;6.20;;;17.90;99.90;;;;;;4912236;29;20180;-86
2023/07/30 01:42:48;;;;;;;23.92;6.47;;;17.90;99.90;;;;;;4917600;29;20206;-87
2023/07/30 01:45:16;;;;;;;24.20;6.80;;;17.90;99.90;;;;;;4917888;29;20195;-86
2023/07/30 01:47:41;;;;;;;24.92;5.88;;;17.90;99.90;;;;;;4917169;29;20192;-87
2023/07/30 01:50:08;;;;;;;23.50;6.38;;;17.90;99.90;;;;;;4916662;29;20606;-88
2023/07/30 01:52:34;;;;;;;24.98;6.32;;;17.90;99.90;;;;;;4917446;29;20300;-86
2023/07/30 01:55:00;;;;;;;28.77;6.53;;;17.90;99.90;;;;;;4907061;29;20198;-87
2023/07/30 01:57:27;;;;;;;25.17;6.90;;;17.90;99.90;;;;;;4917550;29;20219;-87
2023/07/30 01:59:53;;;;;;;23.40;6.82;;;17.90;99.90;;;;;;4916638;29;20211;-86
2023/07/30 02:02:19;;;;;;;21.55;6.00;;;17.90;99.90;;;;;;4916935;29;20188;-86
2023/07/30 02:04:44;;;;;;;17.33;5.50;;;17.90;99.90;;;;;;4916386;29;20243;-86
2023/07/30 02:07:10;;;;;;;17.02;6.20;;;17.90;99.90;;;;;;4916250;29;20186;-87
2023/07/30 02:09:36;;;;;;;20.83;6.40;;;17.90;99.90;;;;;;4897998;29;20188;-87
2023/07/30 02:12:02;;;;;;;23.17;6.18;;;17.90;99.90;;;;;;4914924;29;20192;-85
2023/07/30 02:14:28;;;;;;;23.23;5.47;;;17.90;99.90;;;;;;4910640;29;20188;-87
2023/07/30 02:16:59;;;;;;;27.88;6.32;;;17.90;99.90;;;;;;4912724;29;20195;-87
2023/07/30 02:19:25;;;;;;;22.27;6.10;;;17.90;99.90;;;;;;4932516;29;20238;-86
2023/07/30 02:21:51;;;;;;;23.27;6.15;;;17.90;99.90;;;;;;4932717;29;20200;-87
2023/07/30 02:24:17;;;;;;;22.98;5.88;;;17.90;99.90;;;;;;4916323;29;20192;-87
2023/07/30 02:26:43;;;;;;;21.80;5.88;;;17.90;99.90;;;;;;4932416;29;20192;-87
2023/07/30 02:29:08;;;;;;;28.85;6.28;;;17.90;99.90;;;;;;4916739;29;20204;-86
2023/07/30 02:31:34;;;;;;;22.85;6.18;;;17.90;99.90;;;;;;4917025;29;20192;-86
2023/07/30 02:34:00;;;;;;;24.30;6.20;;;17.90;99.90;;;;;;4916688;29;20203;-87
2023/07/30 02:36:26;;;;;;;28.15;7.07;;;17.90;99.90;;;;;;4904530;29;20187;-87
2023/07/30 02:38:52;;;;;;;24.73;6.13;;;17.90;99.90;;;;;;4915433;29;20322;-87
2023/07/30 02:41:17;;;;;;;23.63;5.53;;;17.90;99.90;;;;;;4914461;29;20189;-86
2023/07/30 02:43:43;;;;;;;37.03;6.50;;;17.80;99.90;;;;;;4916537;29;20637;-87
2023/07/30 02:46:09;;;;;;;24.48;6.10;;;17.80;99.90;;;;;;4933244;29;20208;-88
2023/07/30 02:48:35;;;;;;;26.00;6.18;;;17.80;99.90;;;;;;4923371;29;20199;-86
2023/07/30 02:51:01;;;;;;;28.45;6.30;;;17.80;99.90;;;;;;4918990;29;20275;-87
2023/07/30 02:53:27;;;;;;;20.08;5.68;;;17.80;99.90;;;;;;4922314;29;20210;-86
2023/07/30 02:55:53;;;;;;;28.75;5.82;;;17.80;99.90;;;;;;4902021;29;20295;-86
2023/07/30 02:58:19;;;;;;;23.45;5.97;;;17.80;99.90;;;;;;4937097;29;20962;-85
2023/07/30 03:00:45;;;;;;;22.83;6.25;;;17.80;99.90;;;;;;4922887;29;20219;-87
2023/07/30 03:03:11;;;;;;;29.00;6.03;;;17.80;99.90;;;;;;4921948;29;20220;-86
2023/07/30 03:05:36;;;;;;;28.58;6.13;;;17.80;99.90;;;;;;4914224;29;20242;-86
2023/07/30 03:08:02;;;;;;;28.88;5.97;;;17.70;99.90;;;;;;4902448;29;20194;-86
2023/07/30 03:10:28;;;;;;;27.45;5.80;;;17.80;99.90;;;;;;4917438;29;20188;-87
2023/07/30 03:12:54;;;;;;;27.25;5.50;;;17.70;99.90;;;;;;4920950;29;20192;-86
2023/07/30 03:15:20;;;;;;;26.00;5.68;;;17.70;99.90;;;;;;4914537;29;20201;-86
2023/07/30 03:17:46;;;;;;;28.55;5.78;;;17.70;99.90;;;;;;4918898;29;20222;-86
2023/07/30 03:20:11;;;;;;;22.27;5.43;;;17.70;99.90;;;;;;4911808;29;20196;-86
2023/07/30 03:22:38;;;;;;;19.63;5.22;;;17.60;99.90;;;;;;4915396;29;20256;-87
2023/07/30 03:25:04;;;;;;;30.17;5.60;;;17.60;99.90;;;;;;4899753;29;20692;-86
2023/07/30 03:27:30;;;;;;;29.88;6.03;;;17.60;99.90;;;;;;4912429;29;20188;-86
2023/07/30 03:29:56;;;;;;;25.15;5.53;;;17.60;99.90;;;;;;4909572;29;20231;-87
2023/07/30 03:32:22;;;;;;;30.90;5.82;;;17.60;99.90;;;;;;4920394;29;20191;-87
2023/07/30 03:34:48;;;;;;;28.35;5.40;;;17.60;99.90;;;;;;4911102;29;20693;-84
2023/07/30 03:37:14;;;;;;;18.08;5.45;;;17.60;99.90;;;;;;4914877;29;20223;-87
2023/07/30 03:39:40;;;;;;;24.60;5.32;;;17.50;99.90;;;;;;4914817;29;20243;-86
2023/07/30 03:42:06;;;;;;;26.27;5.68;;;17.50;99.90;;;;;;4916272;29;20535;-86
2023/07/30 03:44:34;;;;;;;24.17;5.18;;;17.50;99.90;;;;;;4911854;29;20191;-86
2023/07/30 03:47:00;;;;;;;24.95;5.63;;;17.50;99.90;;;;;;4916414;29;20198;-87
2023/07/30 03:49:26;;;;;;;24.80;5.05;;;17.50;99.90;;;;;;4912941;29;20199;-87
2023/07/30 03:51:52;;;;;;;22.50;5.47;;;17.40;99.90;;;;;;4928908;29;20202;-87
2023/07/30 03:54:18;;;;;;;27.73;5.57;;;17.40;99.90;;;;;;4913546;29;20267;-87
2023/07/30 03:56:43;;;;;;;22.70;5.80;;;17.40;99.90;;;;;;4903921;29;20309;-87
2023/07/30 03:59:09;;;;;;;25.17;5.07;;;17.40;99.90;;;;;;4914249;29;20216;-87
2023/07/30 04:01:35;;;;;;;24.73;5.60;;;17.40;99.90;;;;;;4900373;29;20199;-87
2023/07/30 04:04:01;;;;;;;21.92;5.50;;;17.40;99.90;;;;;;4909974;29;20211;-86
2023/07/30 04:06:28;;;;;;;28.52;5.32;;;17.40;99.90;;;;;;4908768;29;20311;-87
2023/07/30 04:08:54;;;;;;;26.58;5.28;;;17.40;99.90;;;;;;4914191;29;20653;-87
2023/07/30 04:11:20;;;;;;;23.13;5.60;;;17.30;99.90;;;;;;4916460;29;20175;-87
2023/07/30 04:13:46;;;;;;;22.92;5.28;;;17.30;99.90;;;;;;4914369;29;20299;-87
2023/07/30 04:16:12;;;;;;;20.45;5.65;;;17.30;99.90;;;;;;4910023;29;20642;-87
2023/07/30 04:18:38;;;;;;;25.60;5.38;;;17.30;99.90;;;;;;4916407;29;20216;-87
2023/07/30 04:21:03;;;;;;;28.63;5.45;;;17.30;99.90;;;;;;4915494;29;20255;-87
2023/07/30 04:23:29;;;;;;;25.30;5.32;;;17.30;99.90;;;;;;4918417;29;20180;-85
2023/07/30 04:25:55;;;;;;;22.42;5.25;;;17.30;99.90;;;;;;4903500;29;20668;-86
2023/07/30 04:28:21;;;;;;;23.45;5.45;;;17.30;99.90;;;;;;4913707;29;20187;-88
2023/07/30 04:30:47;;;;;;;26.63;6.40;;;17.30;99.90;;;;;;4917807;29;20203;-87
2023/07/30 04:33:17;;;;;;;25.92;5.22;;;17.30;99.90;;;;;;4917495;29;20207;-84
2023/07/30 04:35:43;;;;;;;28.05;5.60;;;17.30;99.90;;;;;;4914952;29;20597;-88
2023/07/30 04:38:09;;;;;;;29.20;5.78;;;17.30;99.90;;;;;;4915180;29;20310;-89
2023/07/30 04:40:35;;;;;;;25.42;5.20;;;17.30;99.90;;;;;;4916020;29;20630;-93
2023/07/30 04:43:01;;;;;;;21.85;5.05;;;17.30;99.90;;;;;;4924431;29;20670;-91
2023/07/30 04:45:27;;;;;;;27.73;5.65;;;17.30;99.90;;;;;;4912872;29;20195;-92
2023/07/30 04:47:54;;;;;;;20.27;4.93;;;17.30;99.90;;;;;;4922039;29;20187;-93
2023/07/30 04:50:20;;;;;;;24.50;5.18;;;17.30;99.90;;;;;;4938046;29;20261;-91
2023/07/30 04:52:46;;;;;;;22.38;5.25;;;17.30;99.90;;;;;;4918257;29;20232;-88
2023/07/30 04:55:12;;;;;;;26.15;5.20;;;17.30;99.90;;;;;;4920384;29;20203;-91
2023/07/30 04:57:37;;;;;;;25.13;5.13;;;17.30;99.90;;;;;;4919007;29;20681;-90
2023/07/30 05:00:04;;;;;;;24.77;4.95;;;17.30;99.90;;;;;;4918360;29;20180;-93
2023/07/30 05:02:30;;;;;;;23.17;4.90;;;17.30;99.90;;;;;;4922161;29;20280;-91
2023/07/30 05:04:56;;;;;;;20.10;4.70;;;17.40;99.90;;;;;;4917832;29;20266;-90
2023/07/30 05:07:21;;;;;;;23.77;5.32;;;17.40;99.90;;;;;;4897189;29;20190;-91
2023/07/30 05:09:47;;;;;;;26.70;4.97;;;17.40;99.90;;;;;;4920825;29;20587;-92
2023/07/30 05:12:13;;;;;;;19.52;4.82;;;17.40;99.90;;;;;;4920848;29;20196;-90
2023/07/30 05:14:39;;;;;;;17.00;4.55;;;17.40;99.90;;;;;;4921387;29;20206;-92
2023/07/30 05:17:05;;;;;;;25.17;5.30;;;17.50;99.90;;;;;;4915052;29;20189;-90
2023/07/30 05:19:32;;;;;;;20.75;5.25;;;17.50;99.90;;;;;;4921736;29;20696;-88
2023/07/30 05:21:59;;;;;;;23.45;5.20;;;17.50;99.90;;;;;;4912408;29;20192;-89
2023/07/30 05:24:25;;;;;;;19.92;4.72;;;17.50;99.90;;;;;;4926894;29;20196;-87
2023/07/30 05:26:51;;;;;;;19.13;4.47;;;17.50;99.90;;;;;;4910825;29;20363;-90
2023/07/30 05:29:17;;;;;;;17.40;4.40;;;17.50;99.90;;;;;;4937617;28;20594;-90
2023/07/30 05:31:48;;;;;;;21.73;4.53;;;17.50;99.90;;;;;;4925482;29;20219;-91
2023/07/30 05:34:14;;;;;;;25.10;4.63;;;17.50;99.90;;;;;;4909030;29;20348;-91
2023/07/30 05:36:40;;;;;;;20.48;4.57;;;17.50;99.90;;;;;;4924635;29;20259;-92
2023/07/30 05:39:06;;;;;;;22.48;4.43;;;17.50;99.90;;;;;;4930103;29;20224;-90
2023/07/30 05:41:32;;;;;;;19.90;4.25;;;17.50;99.90;;;;;;4918712;29;20188;-88
2023/07/30 05:43:58;;;;;;;19.73;4.20;;;17.60;99.90;;;;;;4919388;29;20272;-84
2023/07/30 05:46:23;;;;;;;15.85;3.40;;;17.60;99.90;;;;;;4887381;29;20223;-84
2023/07/30 05:48:49;;;;;;;20.08;4.25;;;17.60;99.90;;;;;;4919850;29;20210;-89
2023/07/30 05:51:15;;;;;;;17.27;3.78;;;17.70;99.90;;;;;;4915049;29;20649;-89
2023/07/30 05:53:41;;;;;;;17.15;3.72;;;17.70;99.90;;;;;;4919158;29;20188;-89
2023/07/30 05:56:07;;;;;;;16.77;3.95;;;17.70;99.90;;;;;;4919799;29;20196;-89
2023/07/30 05:58:33;;;;;;;18.45;4.18;;;17.80;99.90;;;;;;4923791;29;20283;-85
2023/07/30 06:00:59;;;;;;;20.23;3.80;;;17.80;99.90;;;;;;4922763;29;20188;-91
2023/07/30 06:03:25;;;;;;;18.42;4.10;;;17.80;99.90;;;;;;4921735;29;20188;-90
2023/07/30 06:05:51;;;;;;;19.38;4.03;;;17.80;99.90;;;;;;4902410;29;20263;-91
2023/07/30 06:08:16;;;;;;;18.30;3.95;;;17.90;99.90;;;;;;4920290;29;20291;-88
2023/07/30 06:10:42;;;;;;;16.15;3.47;;;17.90;99.90;;;;;;4917318;29;20184;-91
2023/07/30 06:13:08;;;;;;;15.75;3.83;;;17.90;99.90;;;;;;4922659;29;20188;-92
2023/07/30 06:15:34;;;;;;;17.77;3.35;;;17.90;99.90;;;;;;4923550;29;20190;-92
2023/07/30 06:18:03;;;;;;;19.40;3.92;;;17.90;99.90;;;;;;4921667;29;20212;-90
2023/07/30 06:20:30;;;;;;;20.42;3.80;;;18.00;99.90;;;;;;4916001;29;20220;-88
2023/07/30 06:22:56;;;;;;;18.70;4.03;;;18.00;99.90;;;;;;4918243;29;20287;-87
2023/07/30 06:25:21;;;;;;;19.25;3.60;;;18.00;99.90;;;;;;4919713;29;20219;-90
2023/07/30 06:27:47;;;;;;;19.73;3.60;;;18.00;99.90;;;;;;4930702;29;20286;-89
2023/07/30 06:30:13;;;;;;;16.75;3.60;;;18.00;99.90;;;;;;4934992;29;20215;-89
2023/07/30 06:32:39;;;;;;;12.93;3.58;;;18.00;99.90;;;;;;4906733;29;20212;-88
2023/07/30 06:35:05;;;;;;;18.77;3.78;;;18.10;99.90;;;;;;4916737;29;20188;-93
2023/07/30 06:37:31;;;;;;;15.85;3.30;;;18.10;99.90;;;;;;4898966;29;20188;-87
2023/07/30 06:39:57;;;;;;;18.83;3.60;;;18.10;99.90;;;;;;4918092;29;20194;-92
2023/07/30 06:42:26;;;;;;;21.17;3.53;;;18.10;99.90;;;;;;4934362;29;20187;-90
2023/07/30 06:44:51;;;;;;;16.50;3.60;;;18.20;99.90;;;;;;4921326;29;20191;-90
2023/07/30 06:47:17;;;;;;;15.68;3.53;;;18.20;99.90;;;;;;4936772;29;20183;-93
2023/07/30 06:49:43;;;;;;;18.45;3.35;;;18.20;99.90;;;;;;4923419;29;20243;-94
2023/07/30 06:52:09;;;;;;;16.67;3.35;;;18.30;99.90;;;;;;4903799;29;20188;-90
2023/07/30 06:54:34;;;;;;;19.55;4.30;;;18.30;99.90;;;;;;4928719;29;20192;-88
2023/07/30 06:57:00;;;;;;;17.67;3.90;;;18.40;99.90;;;;;;4946894;29;20255;-89
2023/07/30 06:59:26;;;;;;;21.13;4.13;;;18.40;99.90;;;;;;4929172;29;20219;-91
2023/07/30 07:01:52;;;;;;;17.13;4.05;;;18.40;99.90;;;;;;4938123;29;20192;-92
2023/07/30 07:04:19;;;;;;;11.32;3.33;;;18.50;99.90;;;;;;4921567;29;20563;-89
2023/07/30 07:06:50;;;;;;;18.15;3.60;;;18.50;99.90;;;;;;4916727;29;20274;-90
2023/07/30 07:09:17;;;;;;;17.80;3.60;;;18.50;99.90;;;;;;4919522;29;20282;-89
2023/07/30 07:11:43;;;;;;;16.73;3.58;;;18.50;99.90;;;;;;4920695;29;20275;-86
2023/07/30 07:14:09;;;;;;;16.63;3.47;;;18.60;99.90;;;;;;4916712;29;20198;-90
2023/07/30 07:16:35;;;;;;;13.63;4.00;;;18.70;99.90;;;;;;4922019;29;20768;-92
2023/07/30 07:19:01;;;;;;;19.80;3.72;;;18.80;99.90;;;;;;4924697;29;20231;-92
2023/07/30 07:21:30;;;;;;;14.90;3.50;;;18.80;99.90;;;;;;4934737;29;20187;-89
2023/07/30 07:23:56;;;;;;;17.15;3.05;;;18.90;99.90;;;;;;4933451;29;20187;-90
2023/07/30 07:26:22;;;;;;;12.43;3.17;;;19.00;99.90;;;;;;4928394;29;20555;-92
2023/07/30 07:28:48;;;;;;;16.58;3.38;;;19.00;99.90;;;;;;4909176;29;20279;-90
2023/07/30 07:31:14;;;;;;;13.75;3.13;;;19.10;99.90;;;;;;4923856;29;20192;-87
2023/07/30 07:33:40;;;;;;;15.98;3.35;;;19.20;99.90;;;;;;4929188;29;20282;-94
2023/07/30 07:36:07;;;;;;;9.05;2.60;;;19.30;99.90;;;;;;4924368;29;20191;-94
2023/07/30 07:38:34;;;;;;;10.88;2.60;;;19.30;99.90;;;;;;4921505;29;20208;-90
2023/07/30 07:41:01;;;;;;;11.73;2.80;;;19.40;99.90;;;;;;4934320;29;20199;-90
2023/07/30 07:43:27;;;;;;;11.48;2.67;;;19.50;99.90;;;;;;4925191;29;20196;-94
2023/07/30 07:45:53;;;;;;;12.85;2.67;;;19.50;99.90;;;;;;4922439;29;20188;-95
2023/07/30 07:48:19;;;;;;;9.60;2.65;;;19.60;99.90;;;;;;4939990;29;20192;-89
2023/07/30 07:50:45;;;;;;;15.98;2.58;;;19.70;99.90;;;;;;4916866;29;20321;-87
2023/07/30 07:53:11;;;;;;;9.25;2.20;;;19.70;99.90;;;;;;4914355;29;20302;-89
2023/07/30 07:55:37;;;;;;;11.82;2.40;;;19.80;99.90;;;;;;4916997;29;20216;-89
2023/07/30 07:58:03;;;;;;;11.88;2.05;;;19.90;99.90;;;;;;4898613;29;20294;-89
2023/07/30 08:00:29;;;;;;;12.07;2.33;;;20.00;99.90;;;;;;4935225;29;20226;-93
2023/07/30 08:02:54;;;;;;;15.90;2.55;;;20.10;99.90;;;;;;4905387;29;20194;-91
2023/07/30 08:05:20;;;;;;;13.20;2.53;;;20.00;99.90;;;;;;4917677;29;20223;-93
2023/07/30 08:07:47;;;;;;;9.73;2.40;;;20.00;99.90;;;;;;4938190;29;20195;-89
2023/07/30 08:10:13;;;;;;;15.00;2.28;;;19.90;99.90;;;;;;4932584;29;20188;-92
2023/07/30 08:12:39;;;;;;;12.50;2.63;;;19.90;99.90;;;;;;4919061;29;20319;-87
2023/07/30 08:15:05;;;;;;;9.18;2.05;;;19.80;99.90;;;;;;4915367;29;20192;-88
2023/07/30 08:17:31;;;;;;;13.98;2.30;;;19.80;99.90;;;;;;4915788;29;20263;-88
2023/07/30 08:19:57;;;;;;;17.40;2.50;;;19.70;99.90;;;;;;4911363;29;20704;-89
2023/07/30 08:22:23;;;;;;;14.55;2.42;;;19.70;99.90;;;;;;4915225;29;20188;-88
2023/07/30 08:24:49;;;;;;;14.82;2.80;;;19.60;99.90;;;;;;4914625;29;20199;-89
2023/07/30 08:27:14;;;;;;;11.73;2.67;;;19.60;99.90;;;;;;4928421;29;20195;-87
2023/07/30 08:29:41;;;;;;;11.02;2.38;;;19.60;99.90;;;;;;4904579;29;20200;-91
2023/07/30 08:32:06;;;;;;;11.95;2.53;;;19.50;99.90;;;;;;4916881;29;20188;-88
2023/07/30 08:34:32;;;;;;;18.15;2.35;;;19.50;99.90;;;;;;4920908;29;20192;-89
2023/07/30 08:36:58;;;;;;;11.35;2.28;;;19.50;99.90;;;;;;4917345;29;20652;-87
2023/07/30 08:39:24;;;;;;;11.73;2.42;;;19.50;99.90;;;;;;4913975;29;20258;-84
2023/07/30 08:41:50;;;;;;;10.65;2.15;;;19.50;99.90;;;;;;4939860;29;20203;-90
2023/07/30 08:44:16;;;;;;;9.73;2.42;;;19.50;99.90;;;;;;4913530;29;20188;-91
2023/07/30 08:46:45;;;;;;;9.30;2.30;;;19.50;99.90;;;;;;4935432;29;20212;-90
2023/07/30 08:49:11;;;;;;;17.27;2.30;;;19.40;99.90;;;;;;4933665;29;20196;-86
2023/07/30 08:51:38;;;;;;;9.63;2.40;;;19.40;99.90;;;;;;4931744;29;20213;-88
2023/07/30 08:54:04;;;;;;;12.57;2.30;;;19.40;99.90;;;;;;4920562;29;20219;-88
2023/07/30 08:56:31;;;;;;;9.38;2.05;;;19.40;99.90;;;;;;4926791;29;20198;-89
2023/07/30 08:58:59;;;;;;;15.30;2.60;;;19.40;99.90;;;;;;4944412;29;20331;-88
2023/07/30 09:01:31;;;;;;;15.25;2.10;;;19.40;99.90;;;;;;4949026;29;20834;-87
2023/07/30 09:04:04;;;;;;;12.60;2.42;;;19.40;99.90;;;;;;4936487;29;20215;-90
2023/07/30 09:06:30;;;;;;;10.02;2.20;;;19.50;99.90;;;;;;4950516;29;20231;-88
2023/07/30 09:08:56;;;;;;;10.52;2.03;;;19.50;99.90;;;;;;4919104;29;20203;-86
2023/07/30 09:11:26;;;;;;;16.27;2.28;;;19.60;99.90;;;;;;4938517;29;20236;-91
2023/07/30 09:13:55;;;;;;;10.55;2.10;;;19.70;99.90;;;;;;4935897;29;20227;-90
2023/07/30 09:16:25;;;;;;;10.88;2.00;;;19.70;99.90;;;;;;4938364;29;20211;-88
2023/07/30 09:18:53;;;;;;;10.60;2.00;;;19.80;99.90;;;;;;4956065;28;20235;-87
2023/07/30 09:21:19;;;;;;;12.77;2.55;;;19.80;99.90;;;;;;4937107;29;20188;-88
2023/07/30 09:23:46;;;;;;;12.15;2.25;;;19.80;99.90;;;;;;4933724;29;20260;-89
2023/07/30 09:26:13;;;;;;;9.40;2.10;;;19.80;99.90;;;;;;4935582;29;20261;-86
2023/07/30 09:28:42;;;;;;;15.50;2.78;;;19.80;99.90;;;;;;4934039;29;20188;-88
2023/07/30 09:31:09;;;;;;;12.52;2.35;;;19.80;99.90;;;;;;4937297;29;20176;-89
2023/07/30 09:33:39;;;;;;;10.07;2.30;;;19.70;99.90;;;;;;4938146;29;20193;-91
2023/07/30 09:36:08;;;;;;;13.20;2.10;;;19.70;99.90;;;;;;4936051;29;20200;-92
2023/07/30 09:38:41;;;;;;;11.07;2.20;;;19.70;99.90;;;;;;4940481;29;20695;-88
2023/07/30 09:41:08;;;;;;;6.47;1.77;;;19.70;99.90;;;;;;4933300;29;20192;-88
2023/07/30 09:43:34;;;;;;;8.27;1.60;;;19.60;99.90;;;;;;4899629;29;20180;-89
2023/07/30 09:46:07;;;;;;;6.10;2.13;;;19.70;99.90;;;;;;4933008;29;20188;-91
2023/07/30 09:48:34;;;;;;;5.07;1.52;;;19.70;99.90;;;;;;4936060;29;20191;-87
2023/07/30 09:51:02;;;;;;;7.78;1.80;;;19.60;99.90;;;;;;4933882;29;20199;-89
2023/07/30 09:53:34;;;;;;;7.72;1.95;;;19.60;99.90;;;;;;4935989;29;20188;-88
2023/07/30 09:56:05;;;;;;;6.60;1.90;;;19.60;99.90;;;;;;4935672;29;20196;-87
2023/07/30 09:58:31;;;;;;;8.35;1.90;;;19.70;99.90;;;;;;4932331;29;20223;-91
2023/07/30 10:01:01;;;;;;;6.68;1.70;;;19.70;99.90;;;;;;4951336;29;20183;-84
2023/07/30 10:03:27;;;;;;;4.85;1.50;;;19.70;99.90;;;;;;4926784;29;20189;-89
2023/07/30 10:06:05;;;;;;;5.70;1.60;;;19.80;99.90;;;;;;4935232;29;20279;-89
2023/07/30 10:08:38;;;;;;;6.75;1.65;;;19.80;99.90;;;;;;4936926;29;20172;-89
2023/07/30 10:11:07;;;;;;;6.85;1.50;;;19.80;99.90;;;;;;4938178;29;20227;-90
2023/07/30 10:13:33;;;;;;;6.93;1.80;;;19.80;99.90;;;;;;4939418;29;20183;-89
2023/07/30 10:15:59;;;;;;;6.80;1.83;;;19.90;99.90;;;;;;4929175;29;20203;-89
2023/07/30 10:18:42;;;;;;;10.60;1.73;;;19.90;99.90;;;;;;4931906;29;20215;-87
2023/07/30 10:21:10;;;;;;;4.47;1.55;;;19.90;99.90;;;;;;4936635;29;20247;-86
2023/07/30 10:23:45;;;;;;;6.22;1.75;;;20.00;99.90;;;;;;4930662;29;20180;-87
2023/07/30 10:26:11;;;;;;;6.95;1.85;;;20.10;99.90;;;;;;4927310;29;20220;-89
2023/07/30 10:28:39;;;;;;;5.85;1.70;;;20.10;99.90;;;;;;4933794;29;20219;-87
2023/07/30 10:31:09;;;;;;;5.63;1.88;;;20.30;99.90;;;;;;4935784;29;20172;-91
2023/07/30 10:33:53;;;;;;;7.80;1.60;;;20.40;99.90;;;;;;4927292;29;20268;-87
2023/07/30 10:36:49;;;;;;;11.20;2.03;;;20.50;99.90;;;;;;4931820;29;20172;-90
2023/07/30 10:39:20;;;;;;;6.35;1.70;;;20.70;99.90;;;;;;4939929;29;20235;-89
2023/07/30 10:41:50;;;;;;;8.82;2.03;;;20.70;99.90;;;;;;4932312;29;20181;-90
2023/07/30 10:44:25;;;;;;;11.73;1.80;;;20.60;99.90;;;;;;4933178;29;20225;-91
2023/07/30 10:46:53;;;;;;;7.07;1.75;;;20.50;99.90;;;;;;4926825;29;20191;-87
2023/07/30 10:49:19;;;;;;;6.88;1.67;;;20.30;99.90;;;;;;4919442;29;20793;-87
2023/07/30 10:51:45;;;;;;;9.27;2.08;;;20.30;99.90;;;;;;4918880;29;20195;-90
2023/07/30 10:54:11;;;;;;;7.93;1.77;;;20.20;99.90;;;;;;4925101;29;20191;-91
2023/07/30 10:56:37;;;;;;;8.95;2.15;;;20.30;99.90;;;;;;4924657;29;20234;-87
2023/07/30 10:59:07;;;;;;;8.57;1.95;;;20.30;99.90;;;;;;4890685;29;20216;-90
2023/07/30 11:01:38;;;;;;;10.20;2.30;;;20.30;99.90;;;;;;4921362;29;20598;-90
2023/07/30 11:04:15;;;;;;;10.90;2.40;;;20.30;99.90;;;;;;4918899;29;20188;-89
2023/07/30 11:06:53;;;;;;;10.27;2.05;;;20.40;99.90;;;;;;4930012;29;20418;-89
2023/07/30 11:09:24;;;;;;;8.90;2.15;;;20.50;99.90;;;;;;4917260;29;20180;-88
2023/07/30 11:11:55;;;;;;;11.20;2.33;;;20.50;99.90;;;;;;4915665;29;20570;-89
2023/07/30 11:14:28;;;;;;;12.27;2.45;;;20.60;99.90;;;;;;4916526;29;20896;-88
2023/07/30 11:16:59;;;;;;;12.77;2.60;;;20.80;99.90;;;;;;4920440;29;20557;-93
2023/07/30 11:19:29;;;;;;;10.52;2.30;;;20.90;99.90;;;;;;4917077;29;20284;-92
2023/07/30 11:21:57;;;;;;;9.38;2.42;;;21.00;99.90;;;;;;4926110;29;20191;-93
2023/07/30 11:24:53;;;;;;;10.88;2.28;;;21.10;99.90;;;;;;4943354;29;20266;-89
2023/07/30 11:27:19;;;;;;;7.18;2.10;;;21.20;99.90;;;;;;4919029;29;20214;-89
2023/07/30 11:29:54;;;;;;;11.95;2.40;;;21.30;99.90;;;;;;4936182;29;20603;-88
2023/07/30 11:32:20;;;;;;;8.63;2.33;;;21.30;99.90;;;;;;4938385;29;20219;-94
2023/07/30 11:34:46;;;;;;;12.25;2.20;;;21.40;99.90;;;;;;4937509;29;20211;-93
2023/07/30 11:37:12;;;;;;;11.65;2.17;;;21.40;99.90;;;;;;4928818;29;20267;-90
2023/07/30 11:39:38;;;;;;;10.80;2.38;;;21.50;99.90;;;;;;4930105;29;20245;-89
2023/07/30 11:42:04;;;;;;;10.75;2.20;;;21.50;99.90;;;;;;4930723;29;20259;-91
2023/07/30 11:44:38;;;;;;;7.07;2.17;;;21.60;99.90;;;;;;4925459;29;20275;-93
2023/07/30 11:47:04;;;;;;;9.63;2.25;;;21.70;99.90;;;;;;4930937;29;20188;-91
2023/07/30 11:49:31;;;;;;;10.73;1.83;;;21.80;99.90;;;;;;4930581;29;20609;-91
2023/07/30 11:52:10;;;;;;;11.23;2.03;;;22.00;99.90;;;;;;4929949;29;20223;-91
2023/07/30 11:54:39;;;;;;;6.53;1.83;;;22.10;99.90;;;;;;4913524;29;20180;-92
2023/07/30 11:57:05;;;;;;;9.60;2.17;;;22.20;99.90;;;;;;4925995;29;20320;-88
2023/07/30 11:59:32;;;;;;;7.50;2.35;;;22.30;99.90;;;;;;4918160;29;20699;-88
2023/07/30 12:01:58;;;;;;;13.52;2.25;;;22.50;99.90;;;;;;4918119;29;20263;-89
2023/07/30 12:04:24;;;;;;;7.13;1.90;;;22.50;99.90;;;;;;4934759;29;20704;-90
2023/07/30 12:06:53;;;;;;;7.80;1.80;;;22.40;99.90;;;;;;4904131;29;20227;-88
2023/07/30 12:09:25;;;;;;;10.60;2.10;;;22.40;99.90;;;;;;4917509;29;20191;-92
2023/07/30 12:11:58;;;;;;;10.50;2.10;;;22.30;99.90;;;;;;4932264;29;20192;-90
2023/07/30 12:14:31;;;;;;;8.00;2.20;;;22.10;99.90;;;;;;4915375;29;21013;-89
2023/07/30 12:16:58;;;;;;;8.70;1.98;;;21.90;99.90;;;;;;4923575;29;20189;-89
2023/07/30 12:19:24;;;;;;;12.32;2.35;;;21.80;99.90;;;;;;4919343;29;20219;-90
2023/07/30 12:21:50;;;;;;;9.10;2.20;;;21.70;99.90;;;;;;4918800;29;20239;-90
2023/07/30 12:24:19;;;;;;;7.25;1.83;;;21.60;99.90;;;;;;4913067;29;20196;-88
2023/07/30 12:26:45;;;;;;;9.27;1.90;;;21.50;99.90;;;;;;4918869;29;20187;-89
2023/07/30 12:29:11;;;;;;;6.53;2.00;;;21.40;99.90;;;;;;4917717;29;20187;-90
2023/07/30 12:31:36;;;;;;;6.60;1.90;;;21.30;99.90;;;;;;4921427;29;20192;-87
2023/07/30 12:34:03;;;;;;;6.65;1.42;;;21.20;99.90;;;;;;4922674;29;20203;-89
2023/07/30 12:36:28;;;;;;;8.27;1.75;;;21.20;99.90;;;;;;4920082;29;20244;-88
2023/07/30 12:38:54;;;;;;;8.98;2.10;;;21.20;99.90;;;;;;4919054;29;20223;-89